createdAt,value
2019-05-06T00:00:34.159Z,1015.09
2019-05-06T00:01:34.183Z,1015.13
2019-05-06T00:02:34.174Z,1015.12
2019-05-06T00:03:34.377Z,1015.11
2019-05-06T00:04:34.113Z,1015.14
2019-05-06T00:05:34.115Z,1015.07
2019-05-06T00:06:34.660Z,1015.13
2019-05-06T00:07:34.023Z,1015.14
2019-05-06T00:08:34.524Z,1015.12
2019-05-06T00:09:34.854Z,1015.10
2019-05-06T00:10:34.279Z,1015.13
2019-05-06T00:11:34.593Z,1015.11
2019-05-06T00:12:33.654Z,1015.09
2019-05-06T00:13:34.346Z,1015.11
2019-05-06T00:14:33.967Z,1015.13
2019-05-06T00:15:34.270Z,1015.07
2019-05-06T00:16:34.725Z,1015.09
2019-05-06T00:17:34.907Z,1015.12
2019-05-06T00:18:34.214Z,1015.05
2019-05-06T00:19:34.152Z,1015.06
2019-05-06T00:20:34.808Z,1015.11
2019-05-06T00:21:35.539Z,1015.08
2019-05-06T00:22:34.315Z,1015.12
2019-05-06T00:23:35.357Z,1015.11
2019-05-06T00:24:34.756Z,1015.10
2019-05-06T00:25:34.864Z,1015.08
2019-05-06T00:26:33.973Z,1015.09
2019-05-06T00:27:34.202Z,1015.12
2019-05-06T00:28:34.007Z,1015.11
2019-05-06T00:29:34.911Z,1015.13
2019-05-06T00:30:34.552Z,1015.14
2019-05-06T00:31:34.525Z,1015.12
2019-05-06T00:32:34.805Z,1015.11
2019-05-06T00:33:34.093Z,1015.14
2019-05-06T00:34:34.079Z,1015.09
2019-05-06T00:35:34.294Z,1015.10
2019-05-06T00:36:34.459Z,1015.08
2019-05-06T00:37:34.872Z,1015.07
2019-05-06T00:38:33.986Z,1015.05
2019-05-06T00:39:33.724Z,1015.08
2019-05-06T00:40:34.007Z,1015.09
2019-05-06T00:41:36.254Z,1015.13
2019-05-06T00:42:34.718Z,1015.11
2019-05-06T00:43:34.475Z,1015.14
2019-05-06T00:44:34.655Z,1015.10
2019-05-06T00:45:34.131Z,1015.08
2019-05-06T00:46:34.428Z,1015.06
2019-05-06T00:47:33.995Z,1015.12
2019-05-06T00:48:34.190Z,1015.05
2019-05-06T00:49:34.486Z,1015.09
2019-05-06T00:50:34.896Z,1015.11
2019-05-06T00:51:33.810Z,1015.08
2019-05-06T00:52:33.984Z,1015.08
2019-05-06T00:53:34.691Z,1015.08
2019-05-06T00:54:34.062Z,1015.05
2019-05-06T00:55:33.775Z,1015.04
2019-05-06T00:56:34.092Z,1015.04
2019-05-06T00:57:34.039Z,1015.04
2019-05-06T00:58:34.805Z,1015.04
2019-05-06T00:59:34.561Z,1015.04
2019-05-06T01:00:33.743Z,1015.00
2019-05-06T01:01:34.548Z,1015.05
2019-05-06T01:02:34.265Z,1015.06
2019-05-06T01:03:34.785Z,1015.00
2019-05-06T01:04:33.842Z,1015.01
2019-05-06T01:05:33.738Z,1015.02
2019-05-06T01:06:34.508Z,1014.98
2019-05-06T01:07:34.465Z,1014.99
2019-05-06T01:08:34.889Z,1014.99
2019-05-06T01:09:34.399Z,1014.97
2019-05-06T01:10:34.350Z,1014.99
2019-05-06T01:11:34.584Z,1015.00
2019-05-06T01:12:34.621Z,1015.02
2019-05-06T01:13:34.975Z,1015.01
2019-05-06T01:14:35.074Z,1014.99
2019-05-06T01:15:34.387Z,1015.02
2019-05-06T01:16:34.568Z,1015.02
2019-05-06T01:17:33.896Z,1015.01
2019-05-06T01:18:34.044Z,1015.02
2019-05-06T01:19:34.185Z,1015.07
2019-05-06T01:20:33.965Z,1015.07
2019-05-06T01:21:34.215Z,1015.08
2019-05-06T01:22:34.181Z,1015.07
2019-05-06T01:23:34.190Z,1015.08
2019-05-06T01:24:34.521Z,1015.08
2019-05-06T01:25:34.609Z,1015.07
2019-05-06T01:26:33.711Z,1015.08
2019-05-06T01:27:33.742Z,1015.08
2019-05-06T01:28:34.088Z,1015.08
2019-05-06T01:29:34.730Z,1015.07
2019-05-06T01:30:33.710Z,1015.10
2019-05-06T01:31:42.258Z,1015.06
2019-05-06T01:32:34.526Z,1015.08
2019-05-06T01:33:34.926Z,1015.05
2019-05-06T01:34:33.895Z,1015.07
2019-05-06T01:35:35.054Z,1015.06
2019-05-06T01:36:34.273Z,1015.07
2019-05-06T01:37:34.598Z,1015.07
2019-05-06T01:38:33.985Z,1015.07
2019-05-06T01:39:34.153Z,1015.02
2019-05-06T01:40:34.543Z,1015.05
2019-05-06T01:41:33.828Z,1015.08
2019-05-06T01:42:34.468Z,1015.06
2019-05-06T01:43:34.559Z,1015.04
2019-05-06T01:44:33.932Z,1015.05
2019-05-06T01:45:34.746Z,1015.05
2019-05-06T01:46:33.958Z,1015.03
2019-05-06T01:47:34.515Z,1015.03
2019-05-06T01:48:33.664Z,1015.08
2019-05-06T01:49:34.016Z,1015.04
2019-05-06T01:50:34.435Z,1015.04
2019-05-06T01:51:34.607Z,1015.05
2019-05-06T01:52:34.375Z,1015.02
2019-05-06T01:53:33.827Z,1015.02
2019-05-06T01:54:34.326Z,1015.02
2019-05-06T01:55:34.317Z,1015.00
2019-05-06T01:56:33.745Z,1015.07
2019-05-06T01:57:33.770Z,1015.05
2019-05-06T01:58:33.567Z,1015.06
2019-05-06T01:59:34.035Z,1015.09
2019-05-06T02:00:34.369Z,1015.14
2019-05-06T02:01:34.121Z,1015.10
2019-05-06T02:02:34.373Z,1015.13
2019-05-06T02:03:34.608Z,1015.08
2019-05-06T02:04:33.781Z,1015.08
2019-05-06T02:05:33.699Z,1015.10
2019-05-06T02:06:34.274Z,1015.11
2019-05-06T02:07:34.799Z,1015.17
2019-05-06T02:08:33.704Z,1015.13
2019-05-06T02:09:34.293Z,1015.19
2019-05-06T02:10:34.517Z,1015.19
2019-05-06T02:11:33.787Z,1015.19
2019-05-06T02:12:34.208Z,1015.13
2019-05-06T02:13:34.810Z,1015.19
2019-05-06T02:14:34.164Z,1015.20
2019-05-06T02:15:34.511Z,1015.15
2019-05-06T02:16:34.294Z,1015.17
2019-05-06T02:17:34.373Z,1015.20
2019-05-06T02:18:33.966Z,1015.18
2019-05-06T02:19:34.535Z,1015.19
2019-05-06T02:20:34.018Z,1015.16
2019-05-06T02:21:33.693Z,1015.15
2019-05-06T02:22:34.472Z,1015.16
2019-05-06T02:23:33.850Z,1015.16
2019-05-06T02:24:33.779Z,1015.16
2019-05-06T02:25:34.173Z,1015.17
2019-05-06T02:26:34.209Z,1015.15
2019-05-06T02:27:34.120Z,1015.18
2019-05-06T02:28:34.362Z,1015.14
2019-05-06T02:29:34.122Z,1015.17
2019-05-06T02:30:36.128Z,1015.20
2019-05-06T02:31:35.166Z,1015.17
2019-05-06T02:32:35.702Z,1015.20
2019-05-06T02:33:35.352Z,1015.17
2019-05-06T02:34:32.200Z,1015.20
2019-05-06T02:35:34.688Z,1015.20
2019-05-06T02:36:34.402Z,1015.18
2019-05-06T02:37:34.758Z,1015.15
2019-05-06T02:38:39.090Z,1015.17
2019-05-06T02:39:34.112Z,1015.19
2019-05-06T02:40:33.218Z,1015.17
2019-05-06T02:41:33.778Z,1015.15
2019-05-06T02:42:33.711Z,1015.17
2019-05-06T02:43:34.550Z,1015.16
2019-05-06T02:44:33.552Z,1015.15
2019-05-06T02:45:33.552Z,1015.17
2019-05-06T02:46:33.742Z,1015.15
2019-05-06T02:47:34.308Z,1015.17
2019-05-06T02:48:33.498Z,1015.20
2019-05-06T02:49:32.984Z,1015.12
2019-05-06T02:50:33.953Z,1015.15
2019-05-06T02:51:33.321Z,1015.18
2019-05-06T02:52:33.006Z,1015.16
2019-05-06T02:53:33.399Z,1015.17
2019-05-06T02:54:34.410Z,1015.17
2019-05-06T02:55:36.069Z,1015.19
2019-05-06T02:56:33.364Z,1015.18
2019-05-06T02:57:33.496Z,1015.22
2019-05-06T02:58:33.008Z,1015.18
2019-05-06T02:59:33.140Z,1015.21
2019-05-06T03:00:33.026Z,1015.21
2019-05-06T03:01:34.051Z,1015.24
2019-05-06T03:02:42.103Z,1015.24
2019-05-06T03:03:33.695Z,1015.20
2019-05-06T03:04:33.240Z,1015.21
2019-05-06T03:05:33.301Z,1015.21
2019-05-06T03:06:33.810Z,1015.21
2019-05-06T03:07:32.769Z,1015.20
2019-05-06T03:08:32.930Z,1015.19
2019-05-06T03:09:34.022Z,1015.18
2019-05-06T03:10:32.884Z,1015.16
2019-05-06T03:11:33.202Z,1015.18
2019-05-06T03:12:33.534Z,1015.19
2019-05-06T03:13:34.029Z,1015.18
2019-05-06T03:14:34.660Z,1015.21
2019-05-06T03:15:34.324Z,1015.17
2019-05-06T03:16:33.351Z,1015.20
2019-05-06T03:17:32.894Z,1015.20
2019-05-06T03:18:32.820Z,1015.17
2019-05-06T03:19:34.172Z,1015.20
2019-05-06T03:20:32.414Z,1015.14
2019-05-06T03:21:33.724Z,1015.13
2019-05-06T03:22:34.491Z,1015.17
2019-05-06T03:23:34.698Z,1015.15
2019-05-06T03:24:33.079Z,1015.16
2019-05-06T03:25:33.118Z,1015.16
2019-05-06T03:26:33.179Z,1015.17
2019-05-06T03:27:32.917Z,1015.16
2019-05-06T03:28:33.335Z,1015.15
2019-05-06T03:29:33.432Z,1015.12
2019-05-06T03:30:36.233Z,1015.09
2019-05-06T03:31:35.979Z,1015.11
2019-05-06T03:32:37.618Z,1015.12
2019-05-06T03:33:50.750Z,1015.10
2019-05-06T03:34:52.386Z,1015.11
2019-05-06T03:35:49.213Z,1015.14
2019-05-06T03:36:39.722Z,1015.13
2019-05-06T03:37:33.478Z,1015.13
2019-05-06T03:38:33.455Z,1015.15
2019-05-06T03:39:33.794Z,1015.15
2019-05-06T03:40:36.075Z,1015.11
2019-05-06T03:41:33.769Z,1015.21
2019-05-06T03:42:33.469Z,1015.13
2019-05-06T03:43:33.795Z,1015.15
2019-05-06T03:44:33.027Z,1015.15
2019-05-06T03:45:33.469Z,1015.15
2019-05-06T03:46:33.647Z,1015.12
2019-05-06T03:47:34.555Z,1015.17
2019-05-06T03:48:33.289Z,1015.14
2019-05-06T03:49:33.894Z,1015.14
2019-05-06T03:50:33.636Z,1015.12
2019-05-06T03:51:34.293Z,1015.13
2019-05-06T03:52:34.191Z,1015.15
2019-05-06T03:53:33.346Z,1015.12
2019-05-06T03:54:34.182Z,1015.09
2019-05-06T03:55:33.987Z,1015.13
2019-05-06T03:56:33.898Z,1015.10
2019-05-06T03:57:35.441Z,1015.15
2019-05-06T03:58:34.470Z,1015.11
2019-05-06T03:59:33.509Z,1015.12
2019-05-06T04:00:33.361Z,1015.13
2019-05-06T04:01:33.675Z,1015.10
2019-05-06T04:02:33.591Z,1015.08
2019-05-06T04:03:44.187Z,1015.09
2019-05-06T04:04:33.180Z,1015.10
2019-05-06T04:05:33.400Z,1015.12
2019-05-06T04:06:33.284Z,1015.13
2019-05-06T04:07:33.899Z,1015.12
2019-05-06T04:08:33.906Z,1015.18
2019-05-06T04:09:36.307Z,1015.14
2019-05-06T04:10:33.783Z,1015.18
2019-05-06T04:11:35.781Z,1015.19
2019-05-06T04:12:33.158Z,1015.17
2019-05-06T04:13:33.220Z,1015.16
2019-05-06T04:14:33.776Z,1015.17
2019-05-06T04:15:34.053Z,1015.14
2019-05-06T04:16:33.635Z,1015.15
2019-05-06T04:17:32.944Z,1015.16
2019-05-06T04:18:33.365Z,1015.18
2019-05-06T04:19:33.397Z,1015.19
2019-05-06T04:20:33.969Z,1015.19
2019-05-06T04:21:32.930Z,1015.19
2019-05-06T04:22:33.297Z,1015.19
2019-05-06T04:23:33.188Z,1015.26
2019-05-06T04:24:33.608Z,1015.22
2019-05-06T04:25:33.844Z,1015.20
2019-05-06T04:26:32.923Z,1015.21
2019-05-06T04:27:33.533Z,1015.25
2019-05-06T04:28:33.970Z,1015.20
2019-05-06T04:29:33.046Z,1015.27
2019-05-06T04:30:33.390Z,1015.24
2019-05-06T04:31:33.546Z,1015.27
2019-05-06T04:32:33.837Z,1015.26
2019-05-06T04:33:33.206Z,1015.26
2019-05-06T04:34:33.179Z,1015.27
2019-05-06T04:35:33.593Z,1015.23
2019-05-06T04:36:33.629Z,1015.22
2019-05-06T04:37:33.721Z,1015.25
2019-05-06T04:38:33.523Z,1015.25
2019-05-06T04:39:33.126Z,1015.25
2019-05-06T04:40:33.079Z,1015.23
2019-05-06T04:41:33.829Z,1015.21
2019-05-06T04:42:34.129Z,1015.23
2019-05-06T04:43:33.629Z,1015.25
2019-05-06T04:44:33.073Z,1015.26
2019-05-06T04:45:33.437Z,1015.29
2019-05-06T04:46:34.337Z,1015.26
2019-05-06T04:47:32.758Z,1015.32
2019-05-06T04:48:33.061Z,1015.33
2019-05-06T04:49:33.041Z,1015.33
2019-05-06T04:50:33.094Z,1015.34
2019-05-06T04:51:32.824Z,1015.30
2019-05-06T04:52:33.982Z,1015.28
2019-05-06T04:53:33.725Z,1015.25
2019-05-06T04:54:33.683Z,1015.25
2019-05-06T04:55:33.385Z,1015.28
2019-05-06T04:56:33.245Z,1015.30
2019-05-06T04:57:33.377Z,1015.33
2019-05-06T04:58:33.278Z,1015.36
2019-05-06T04:59:32.577Z,1015.38
2019-05-06T05:00:33.060Z,1015.42
2019-05-06T05:01:33.873Z,1015.42
2019-05-06T05:02:33.435Z,1015.44
2019-05-06T05:03:33.375Z,1015.43
2019-05-06T05:04:32.679Z,1015.40
2019-05-06T05:05:33.080Z,1015.45
2019-05-06T05:06:32.856Z,1015.49
2019-05-06T05:07:33.202Z,1015.49
2019-05-06T05:08:33.131Z,1015.46
2019-05-06T05:09:32.515Z,1015.47
2019-05-06T05:10:32.311Z,1015.41
2019-05-06T05:11:33.074Z,1015.42
2019-05-06T05:12:33.461Z,1015.45
2019-05-06T05:13:32.966Z,1015.36
2019-05-06T05:14:32.669Z,1015.38
2019-05-06T05:15:32.534Z,1015.36
2019-05-06T05:16:33.005Z,1015.37
2019-05-06T05:17:32.966Z,1015.41
2019-05-06T05:18:32.074Z,1015.54
2019-05-06T05:19:32.581Z,1015.50
2019-05-06T05:20:37.748Z,1015.61
2019-05-06T05:21:32.258Z,1015.58
2019-05-06T05:22:32.468Z,1015.63
2019-05-06T05:23:31.900Z,1015.64
2019-05-06T05:24:31.726Z,1015.66
2019-05-06T05:25:30.507Z,1015.68
2019-05-06T05:26:32.272Z,1015.67
2019-05-06T05:27:32.800Z,1015.73
2019-05-06T05:28:32.026Z,1015.71
2019-05-06T05:29:32.396Z,1015.72
2019-05-06T05:30:32.699Z,1015.76
2019-05-06T05:31:32.878Z,1015.73
2019-05-06T05:32:32.110Z,1015.78
2019-05-06T05:33:32.524Z,1015.77
2019-05-06T05:34:39.560Z,1015.75
2019-05-06T05:35:32.166Z,1015.77
2019-05-06T05:36:32.604Z,1015.79
2019-05-06T05:37:30.406Z,1015.84
2019-05-06T05:38:32.082Z,1015.81
2019-05-06T05:39:30.391Z,1015.83
2019-05-06T05:40:32.208Z,1015.77
2019-05-06T05:41:30.378Z,1015.75
2019-05-06T05:42:32.633Z,1015.76
2019-05-06T05:43:32.532Z,1015.76
2019-05-06T05:44:32.278Z,1015.73
2019-05-06T05:45:30.341Z,1015.73
2019-05-06T05:46:30.340Z,1015.75
2019-05-06T05:47:30.325Z,1015.73
2019-05-06T05:48:32.425Z,1015.80
2019-05-06T05:49:32.332Z,1015.76
2019-05-06T05:50:32.355Z,1015.77
2019-05-06T05:51:32.047Z,1015.77
2019-05-06T05:52:32.707Z,1015.79
2019-05-06T05:53:30.276Z,1015.76
2019-05-06T05:54:30.273Z,1015.75
2019-05-06T05:55:30.267Z,1015.78
2019-05-06T05:56:32.623Z,1015.78
2019-05-06T05:57:32.183Z,1015.80
2019-05-06T05:58:32.879Z,1015.78
2019-05-06T05:59:32.703Z,1015.83
2019-05-06T06:00:32.273Z,1015.80
2019-05-06T06:01:32.475Z,1015.81
2019-05-06T06:02:30.215Z,1015.78
2019-05-06T06:03:31.989Z,1015.82
2019-05-06T06:04:32.040Z,1015.77
2019-05-06T06:05:30.183Z,1015.77
2019-05-06T06:06:30.175Z,1015.77
2019-05-06T06:07:30.167Z,1015.78
2019-05-06T06:08:32.107Z,1015.77
2019-05-06T06:09:30.161Z,1015.78
2019-05-06T06:10:30.149Z,1015.78
2019-05-06T06:11:32.684Z,1015.71
2019-05-06T06:12:32.332Z,1015.75
2019-05-06T06:13:32.036Z,1015.75
2019-05-06T06:14:30.121Z,1015.71
2019-05-06T06:15:30.106Z,1015.80
2019-05-06T06:16:30.106Z,1015.76
2019-05-06T06:17:30.098Z,1015.74
2019-05-06T06:18:30.088Z,1015.74
2019-05-06T06:19:30.080Z,1015.75
2019-05-06T06:20:30.074Z,1015.73
2019-05-06T06:21:32.048Z,1015.77
2019-05-06T06:22:30.066Z,1015.76
2019-05-06T06:23:30.056Z,1015.75
2019-05-06T06:24:32.057Z,1015.74
2019-05-06T06:25:30.051Z,1015.77
2019-05-06T06:26:32.340Z,1015.73
2019-05-06T06:27:30.029Z,1015.75
2019-05-06T06:28:30.043Z,1015.78
2019-05-06T06:29:32.230Z,1015.78
2019-05-06T06:30:30.005Z,1015.80
2019-05-06T06:31:30.001Z,1015.77
2019-05-06T06:32:29.991Z,1015.79
2019-05-06T06:33:29.992Z,1015.77
2019-05-06T06:34:29.985Z,1015.80
2019-05-06T06:35:29.975Z,1015.79
2019-05-06T06:36:29.966Z,1015.80
2019-05-06T06:37:29.959Z,1015.79
2019-05-06T06:38:32.259Z,1015.79
2019-05-06T06:39:29.941Z,1015.81
2019-05-06T06:40:29.938Z,1015.81
2019-05-06T06:41:32.202Z,1015.80
2019-05-06T06:42:29.934Z,1015.81
2019-05-06T06:43:29.914Z,1015.79
2019-05-06T06:44:29.906Z,1015.76
2019-05-06T06:45:29.907Z,1015.80
2019-05-06T06:46:32.225Z,1015.79
2019-05-06T06:47:31.927Z,1015.79
2019-05-06T06:48:31.942Z,1015.77
2019-05-06T06:49:29.883Z,1015.75
2019-05-06T06:50:29.869Z,1015.73
2019-05-06T06:51:29.862Z,1015.76
2019-05-06T06:52:29.851Z,1015.70
2019-05-06T06:53:29.850Z,1015.70
2019-05-06T06:54:32.174Z,1015.70
2019-05-06T06:55:31.741Z,1015.65
2019-05-06T06:56:29.836Z,1015.58
2019-05-06T06:57:32.345Z,1015.48
2019-05-06T06:58:29.811Z,1015.40
2019-05-06T06:59:31.761Z,1015.44
2019-05-06T07:00:29.797Z,1015.51
2019-05-06T07:01:29.792Z,1015.59
2019-05-06T07:02:29.786Z,1015.60
2019-05-06T07:03:29.784Z,1015.62
2019-05-06T07:04:32.275Z,1015.67
2019-05-06T07:05:29.772Z,1015.68
2019-05-06T07:06:29.767Z,1015.71
2019-05-06T07:07:41.430Z,1015.78
2019-05-06T07:08:34.847Z,1015.75
2019-05-06T07:09:29.847Z,1015.84
2019-05-06T07:10:32.261Z,1015.79
2019-05-06T07:11:29.765Z,1015.81
2019-05-06T07:12:29.734Z,1015.86
2019-05-06T07:13:29.775Z,1015.83
2019-05-06T07:14:29.732Z,1015.89
2019-05-06T07:15:29.722Z,1015.92
2019-05-06T07:16:29.713Z,1015.92
2019-05-06T07:17:29.716Z,1015.89
2019-05-06T07:18:29.721Z,1015.89
2019-05-06T07:19:29.708Z,1015.88
2019-05-06T07:20:32.382Z,1015.83
2019-05-06T07:21:29.812Z,1015.85
2019-05-06T07:22:29.701Z,1015.88
2019-05-06T07:23:29.695Z,1015.90
2019-05-06T07:24:29.698Z,1015.80
2019-05-06T07:25:29.696Z,1015.83
2019-05-06T07:26:31.690Z,1015.84
2019-05-06T07:27:29.695Z,1015.82
2019-05-06T07:28:29.688Z,1015.82
2019-05-06T07:29:29.686Z,1015.84
2019-05-06T07:30:29.687Z,1015.88
2019-05-06T07:31:29.684Z,1015.81
2019-05-06T07:32:29.680Z,1015.79
2019-05-06T07:33:29.682Z,1015.79
2019-05-06T07:34:29.677Z,1015.74
2019-05-06T07:35:38.431Z,1015.78
2019-05-06T07:36:29.670Z,1015.74
2019-05-06T07:37:29.680Z,1015.76
2019-05-06T07:38:29.673Z,1015.79
2019-05-06T07:39:29.663Z,1015.79
2019-05-06T07:40:29.670Z,1015.83
2019-05-06T07:41:29.672Z,1015.84
2019-05-06T07:42:29.664Z,1015.82
2019-05-06T07:43:29.660Z,1015.79
2019-05-06T07:44:29.659Z,1015.78
2019-05-06T07:45:29.662Z,1015.78
2019-05-06T07:46:29.663Z,1015.82
2019-05-06T07:47:29.657Z,1015.80
2019-05-06T07:48:31.910Z,1015.80
2019-05-06T07:49:29.656Z,1015.75
2019-05-06T07:50:29.654Z,1015.82
2019-05-06T07:51:29.652Z,1015.80
2019-05-06T07:52:29.651Z,1015.91
2019-05-06T07:53:32.011Z,1015.90
2019-05-06T07:54:29.647Z,1015.89
2019-05-06T07:55:29.642Z,1015.88
2019-05-06T07:56:32.068Z,1015.84
2019-05-06T07:57:29.648Z,1015.84
2019-05-06T07:58:29.643Z,1015.85
2019-05-06T07:59:29.641Z,1015.86
2019-05-06T08:00:29.637Z,1015.86
2019-05-06T08:01:29.633Z,1015.83
2019-05-06T08:02:31.964Z,1015.76
2019-05-06T08:03:29.629Z,1015.86
2019-05-06T08:04:29.633Z,1015.86
2019-05-06T08:05:32.177Z,1015.85
2019-05-06T08:06:29.624Z,1015.83
2019-05-06T08:07:29.619Z,1015.86
2019-05-06T08:08:29.621Z,1015.86
2019-05-06T08:09:29.619Z,1015.83
2019-05-06T08:10:29.617Z,1015.85
2019-05-06T08:11:29.614Z,1015.89
2019-05-06T08:12:29.612Z,1015.88
2019-05-06T08:13:31.758Z,1015.84
2019-05-06T08:14:29.603Z,1015.84
2019-05-06T08:15:29.599Z,1015.86
2019-05-06T08:16:31.822Z,1015.86
2019-05-06T08:17:29.597Z,1015.83
2019-05-06T08:18:29.594Z,1015.86
2019-05-06T08:19:29.589Z,1015.88
2019-05-06T08:20:29.585Z,1015.83
2019-05-06T08:21:29.586Z,1015.86
2019-05-06T08:22:29.583Z,1015.80
2019-05-06T08:23:29.575Z,1015.82
2019-05-06T08:24:29.571Z,1015.83
2019-05-06T08:25:29.565Z,1015.86
2019-05-06T08:26:29.560Z,1015.83
2019-05-06T08:27:29.561Z,1015.87
2019-05-06T08:28:38.657Z,1015.85
2019-05-06T08:29:29.553Z,1015.90
2019-05-06T08:30:29.597Z,1015.85
2019-05-06T08:31:29.546Z,1015.85
2019-05-06T08:32:29.539Z,1015.87
2019-05-06T08:33:29.537Z,1015.83
2019-05-06T08:34:29.529Z,1015.89
2019-05-06T08:35:29.523Z,1015.84
2019-05-06T08:36:29.521Z,1015.86
2019-05-06T08:37:29.513Z,1015.84
2019-05-06T08:38:29.509Z,1015.85
2019-05-06T08:39:29.502Z,1015.81
2019-05-06T08:40:29.498Z,1015.83
2019-05-06T08:41:29.497Z,1015.77
2019-05-06T08:42:29.491Z,1015.75
2019-05-06T08:43:29.486Z,1015.75
2019-05-06T08:44:29.481Z,1015.76
2019-05-06T08:45:29.476Z,1015.80
2019-05-06T08:46:29.468Z,1015.74
2019-05-06T08:47:29.462Z,1015.72
2019-05-06T08:48:29.473Z,1015.74
2019-05-06T08:49:29.455Z,1015.80
2019-05-06T08:50:29.452Z,1015.75
2019-05-06T08:51:29.456Z,1015.70
2019-05-06T08:52:29.438Z,1015.75
2019-05-06T08:53:29.434Z,1015.68
2019-05-06T08:54:29.453Z,1015.73
2019-05-06T08:55:29.422Z,1015.73
2019-05-06T08:56:29.424Z,1015.67
2019-05-06T08:57:29.410Z,1015.72
2019-05-06T08:58:29.404Z,1015.67
2019-05-06T08:59:29.396Z,1015.75
2019-05-06T09:00:29.391Z,1015.73
2019-05-06T09:01:29.389Z,1015.72
2019-05-06T09:02:29.386Z,1015.68
2019-05-06T09:03:29.379Z,1015.71
2019-05-06T09:04:29.373Z,1015.70
2019-05-06T09:05:29.365Z,1015.75
2019-05-06T09:06:33.075Z,1015.75
2019-05-06T09:07:29.362Z,1015.74
2019-05-06T09:08:29.354Z,1015.78
2019-05-06T09:09:29.346Z,1015.78
2019-05-06T09:10:29.341Z,1015.77
2019-05-06T09:11:29.335Z,1015.79
2019-05-06T09:12:29.335Z,1015.81
2019-05-06T09:13:29.334Z,1015.78
2019-05-06T09:14:29.328Z,1015.76
2019-05-06T09:15:29.324Z,1015.79
2019-05-06T09:16:29.315Z,1015.78
2019-05-06T09:17:29.308Z,1015.80
2019-05-06T09:18:29.304Z,1015.87
2019-05-06T09:19:29.299Z,1015.83
2019-05-06T09:20:29.294Z,1015.86
2019-05-06T09:21:29.299Z,1015.88
2019-05-06T09:22:29.286Z,1015.88
2019-05-06T09:23:29.288Z,1015.87
2019-05-06T09:24:29.273Z,1015.84
2019-05-06T09:25:29.269Z,1015.88
2019-05-06T09:26:29.265Z,1015.88
2019-05-06T09:27:29.260Z,1015.88
2019-05-06T09:28:29.256Z,1015.86
2019-05-06T09:29:29.247Z,1015.85
2019-05-06T09:30:29.243Z,1015.84
2019-05-06T09:31:29.237Z,1015.83
2019-05-06T09:32:29.261Z,1015.87
2019-05-06T09:33:29.238Z,1015.85
2019-05-06T09:34:29.225Z,1015.89
2019-05-06T09:35:29.225Z,1015.87
2019-05-06T09:36:41.321Z,1015.80
2019-05-06T09:37:29.206Z,1015.81
2019-05-06T09:38:29.211Z,1015.79
2019-05-06T09:39:29.203Z,1015.79
2019-05-06T09:40:29.196Z,1015.80
2019-05-06T09:41:29.191Z,1015.79
2019-05-06T09:42:29.183Z,1015.79
2019-05-06T09:43:29.179Z,1015.75
2019-05-06T09:44:29.173Z,1015.76
2019-05-06T09:45:29.172Z,1015.75
2019-05-06T09:46:29.166Z,1015.75
2019-05-06T09:47:29.161Z,1015.75
2019-05-06T09:48:29.158Z,1015.74
2019-05-06T09:49:29.153Z,1015.73
2019-05-06T09:50:29.150Z,1015.70
2019-05-06T09:51:29.140Z,1015.69
2019-05-06T09:52:29.133Z,1015.70
2019-05-06T09:53:29.134Z,1015.70
2019-05-06T09:54:29.131Z,1015.67
2019-05-06T09:55:29.122Z,1015.68
2019-05-06T09:56:29.120Z,1015.68
2019-05-06T09:57:29.119Z,1015.68
2019-05-06T09:58:29.116Z,1015.67
2019-05-06T09:59:29.104Z,1015.64
2019-05-06T10:00:29.105Z,1015.64
2019-05-06T10:01:29.090Z,1015.61
2019-05-06T10:02:29.090Z,1015.66
2019-05-06T10:03:29.120Z,1015.61
2019-05-06T10:04:29.081Z,1015.63
2019-05-06T10:05:29.077Z,1015.64
2019-05-06T10:06:29.073Z,1015.66
2019-05-06T10:07:29.067Z,1015.65
2019-05-06T10:08:29.066Z,1015.58
2019-05-06T10:09:29.055Z,1015.56
2019-05-06T10:10:29.053Z,1015.56
2019-05-06T10:11:29.055Z,1015.58
2019-05-06T10:12:29.044Z,1015.57
2019-05-06T10:13:29.038Z,1015.60
2019-05-06T10:14:29.031Z,1015.60
2019-05-06T10:15:29.026Z,1015.60
2019-05-06T10:16:29.029Z,1015.59
2019-05-06T10:17:29.022Z,1015.56
2019-05-06T10:18:29.018Z,1015.55
2019-05-06T10:19:29.014Z,1015.56
2019-05-06T10:20:29.008Z,1015.62
2019-05-06T10:21:29.001Z,1015.60
2019-05-06T10:22:28.995Z,1015.58
2019-05-06T10:23:28.992Z,1015.58
2019-05-06T10:24:28.988Z,1015.56
2019-05-06T10:25:28.988Z,1015.60
2019-05-06T10:26:28.984Z,1015.57
2019-05-06T10:27:28.975Z,1015.56
2019-05-06T10:28:28.973Z,1015.54
2019-05-06T10:29:28.969Z,1015.54
2019-05-06T10:30:28.966Z,1015.55
2019-05-06T10:31:28.961Z,1015.56
2019-05-06T10:32:28.957Z,1015.53
2019-05-06T10:33:28.949Z,1015.50
2019-05-06T10:34:28.946Z,1015.50
2019-05-06T10:35:29.685Z,1015.51
2019-05-06T10:36:28.945Z,1015.51
2019-05-06T10:37:28.937Z,1015.58
2019-05-06T10:38:28.935Z,1015.50
2019-05-06T10:39:28.931Z,1015.53
2019-05-06T10:40:28.921Z,1015.49
2019-05-06T10:41:28.918Z,1015.48
2019-05-06T10:42:28.915Z,1015.50
2019-05-06T10:43:28.913Z,1015.44
2019-05-06T10:44:28.912Z,1015.43
2019-05-06T10:45:28.904Z,1015.43
2019-05-06T10:46:28.911Z,1015.44
2019-05-06T10:47:28.897Z,1015.41
2019-05-06T10:48:28.892Z,1015.44
2019-05-06T10:49:28.891Z,1015.43
2019-05-06T10:50:28.895Z,1015.41
2019-05-06T10:51:28.889Z,1015.42
2019-05-06T10:52:28.885Z,1015.42
2019-05-06T10:53:28.879Z,1015.41
2019-05-06T10:54:28.873Z,1015.41
2019-05-06T10:55:28.873Z,1015.39
2019-05-06T10:56:28.873Z,1015.39
2019-05-06T10:57:28.868Z,1015.40
2019-05-06T10:58:28.867Z,1015.37
2019-05-06T10:59:28.861Z,1015.31
2019-05-06T11:00:28.857Z,1015.34
2019-05-06T11:01:28.858Z,1015.33
2019-05-06T11:02:28.859Z,1015.28
2019-05-06T11:03:28.857Z,1015.29
2019-05-06T11:04:28.846Z,1015.32
2019-05-06T11:05:28.846Z,1015.29
2019-05-06T11:06:28.842Z,1015.33
2019-05-06T11:07:32.123Z,1015.30
2019-05-06T11:08:28.841Z,1015.28
2019-05-06T11:09:28.839Z,1015.27
2019-05-06T11:10:38.060Z,1015.25
2019-05-06T11:11:35.048Z,1015.28
2019-05-06T11:12:28.825Z,1015.24
2019-05-06T11:13:28.831Z,1015.28
2019-05-06T11:14:28.813Z,1015.31
2019-05-06T11:15:28.820Z,1015.26
2019-05-06T11:16:28.816Z,1015.23
2019-05-06T11:17:28.818Z,1015.16
2019-05-06T11:18:28.818Z,1015.17
2019-05-06T11:19:28.807Z,1015.19
2019-05-06T11:20:28.804Z,1015.16
2019-05-06T11:21:28.804Z,1015.18
2019-05-06T11:22:28.804Z,1015.19
2019-05-06T11:23:28.795Z,1015.18
2019-05-06T11:24:28.794Z,1015.12
2019-05-06T11:25:28.787Z,1015.17
2019-05-06T11:26:28.799Z,1015.12
2019-05-06T11:27:32.690Z,1015.15
2019-05-06T11:28:28.780Z,1015.15
2019-05-06T11:29:28.776Z,1015.16
2019-05-06T11:30:28.773Z,1015.11
2019-05-06T11:31:28.812Z,1015.19
2019-05-06T11:32:28.762Z,1015.12
2019-05-06T11:33:28.761Z,1015.15
2019-05-06T11:34:28.755Z,1015.13
2019-05-06T11:35:28.783Z,1015.13
2019-05-06T11:36:28.744Z,1015.14
2019-05-06T11:37:42.911Z,1015.09
2019-05-06T11:38:28.738Z,1015.08
2019-05-06T11:39:28.730Z,1015.11
2019-05-06T11:40:28.727Z,1015.10
2019-05-06T11:41:28.727Z,1015.11
2019-05-06T11:42:32.445Z,1015.11
2019-05-06T11:43:28.717Z,1015.09
2019-05-06T11:44:28.708Z,1015.10
2019-05-06T11:45:28.707Z,1015.08
2019-05-06T11:46:28.698Z,1015.04
2019-05-06T11:47:28.700Z,1015.08
2019-05-06T11:48:28.722Z,1015.08
2019-05-06T11:49:28.683Z,1015.10
2019-05-06T11:50:28.678Z,1015.06
2019-05-06T11:51:28.673Z,1015.05
2019-05-06T11:52:28.668Z,1015.06
2019-05-06T11:53:28.670Z,1015.06
2019-05-06T11:54:28.663Z,1015.10
2019-05-06T11:55:33.751Z,1015.07
2019-05-06T11:56:28.651Z,1015.03
2019-05-06T11:57:28.642Z,1015.07
2019-05-06T11:58:28.644Z,1015.07
2019-05-06T11:59:28.632Z,1015.09
2019-05-06T12:00:28.627Z,1015.04
2019-05-06T12:01:28.619Z,1015.08
2019-05-06T12:02:28.621Z,1015.07
2019-05-06T12:03:28.611Z,1015.04
2019-05-06T12:04:28.611Z,1015.08
2019-05-06T12:05:28.603Z,1015.06